createdAt,value
2019-03-28T00:01:48.761Z,41.33
2019-03-28T00:04:14.923Z,40.05
2019-03-28T00:06:41.450Z,40.57
2019-03-28T00:09:07.930Z,41.45
2019-03-28T00:11:34.268Z,40.16
2019-03-28T00:14:00.468Z,40.50
2019-03-28T00:16:26.622Z,39.72
2019-03-28T00:18:53.219Z,38.96
2019-03-28T00:21:19.532Z,39.52
2019-03-28T00:23:59.424Z,40.03
2019-03-28T00:26:30.460Z,40.80
2019-03-28T00:28:53.777Z,41.91
2019-03-28T00:31:20.052Z,42.73
2019-03-28T00:33:46.244Z,42.63
2019-03-28T00:36:12.398Z,42.13
2019-03-28T00:38:38.571Z,44.19
2019-03-28T00:41:04.767Z,43.75
2019-03-28T00:43:30.933Z,44.52
2019-03-28T00:45:57.091Z,44.68
2019-03-28T00:48:23.284Z,44.46
2019-03-28T00:50:49.439Z,44.18
2019-03-28T00:53:15.599Z,45.77
2019-03-28T00:55:41.792Z,44.26
2019-03-28T00:58:07.945Z,43.65
2019-03-28T01:00:34.218Z,43.77
2019-03-28T01:03:00.417Z,45.14
2019-03-28T01:05:26.566Z,43.27
2019-03-28T01:07:52.750Z,44.60
2019-03-28T01:10:18.950Z,43.91
2019-03-28T01:12:45.209Z,42.87
2019-03-28T01:15:11.369Z,43.11
2019-03-28T01:17:37.660Z,42.66
2019-03-28T01:20:05.644Z,43.38
2019-03-28T01:22:31.843Z,44.54
2019-03-28T01:24:58.051Z,44.44
2019-03-28T01:27:24.191Z,43.96
2019-03-28T01:29:50.443Z,42.38
2019-03-28T01:32:16.645Z,42.05
2019-03-28T01:34:42.808Z,42.10
2019-03-28T01:37:08.969Z,42.54
2019-03-28T01:39:35.311Z,43.38
2019-03-28T01:42:01.626Z,41.71
2019-03-28T01:44:27.786Z,42.88
2019-03-28T01:46:53.997Z,42.61
2019-03-28T01:49:20.255Z,42.16
2019-03-28T01:51:46.415Z,41.97
2019-03-28T01:54:12.610Z,41.90
2019-03-28T01:56:38.757Z,42.05
2019-03-28T01:59:04.908Z,41.92
2019-03-28T02:01:31.101Z,40.88
2019-03-28T02:03:57.262Z,41.83
2019-03-28T02:06:23.416Z,42.40
2019-03-28T02:08:49.612Z,41.29
2019-03-28T02:11:15.879Z,41.46
2019-03-28T02:13:42.042Z,41.83
2019-03-28T02:16:08.240Z,41.04
2019-03-28T02:18:34.397Z,41.46
2019-03-28T02:21:01.255Z,40.80
2019-03-28T02:23:27.866Z,40.72
2019-03-28T02:25:54.123Z,40.52
2019-03-28T02:28:20.393Z,40.86
2019-03-28T02:30:46.596Z,42.15
2019-03-28T02:33:12.744Z,41.82
2019-03-28T02:35:38.904Z,42.29
2019-03-28T02:38:05.092Z,42.45
2019-03-28T02:40:31.244Z,41.86
2019-03-28T02:42:57.396Z,44.27
2019-03-28T02:45:23.722Z,43.21
2019-03-28T02:47:49.853Z,43.46
2019-03-28T02:50:16.133Z,43.45
2019-03-28T02:52:42.429Z,43.16
2019-03-28T02:55:08.584Z,43.46
2019-03-28T02:57:41.442Z,44.45
2019-03-28T03:00:05.448Z,44.79
2019-03-28T03:02:32.361Z,44.10
2019-03-28T03:04:58.768Z,44.35
2019-03-28T03:07:25.367Z,45.89
2019-03-28T03:09:51.810Z,45.29
2019-03-28T03:12:18.095Z,45.12
2019-03-28T03:14:44.283Z,43.57
2019-03-28T03:17:10.543Z,43.59
2019-03-28T03:19:36.696Z,43.14
2019-03-28T03:22:03.197Z,42.67
2019-03-28T03:24:29.588Z,42.34
2019-03-28T03:26:55.743Z,42.98
2019-03-28T03:29:21.942Z,42.90
2019-03-28T03:31:48.092Z,42.74
2019-03-28T03:34:14.364Z,42.21
2019-03-28T03:36:40.541Z,41.20
2019-03-28T03:39:07.618Z,40.90
2019-03-28T03:41:33.791Z,41.11
2019-03-28T03:44:00.081Z,41.00
2019-03-28T03:46:26.277Z,41.35
2019-03-28T03:48:52.586Z,41.14
2019-03-28T03:51:18.883Z,41.68
2019-03-28T03:53:45.054Z,40.68
2019-03-28T03:56:11.296Z,40.96
2019-03-28T03:58:37.486Z,42.57
2019-03-28T04:01:03.650Z,41.36
2019-03-28T04:03:29.822Z,41.93
2019-03-28T04:05:55.980Z,41.03
2019-03-28T04:08:22.149Z,41.47
2019-03-28T04:10:48.305Z,41.13
2019-03-28T04:13:14.595Z,40.03
2019-03-28T04:15:40.753Z,40.39
2019-03-28T04:18:06.909Z,39.19
2019-03-28T04:20:33.098Z,37.92
2019-03-28T04:22:59.246Z,38.41
2019-03-28T04:25:25.447Z,37.25
2019-03-28T04:27:51.629Z,36.62
2019-03-28T04:30:17.786Z,35.20
2019-03-28T04:32:44.040Z,35.22
2019-03-28T04:35:10.246Z,33.65
2019-03-28T04:37:36.493Z,33.72
2019-03-28T04:40:06.148Z,33.89
2019-03-28T04:42:32.336Z,34.06
2019-03-28T04:44:58.596Z,32.53
2019-03-28T04:47:24.763Z,32.23
2019-03-28T04:49:50.959Z,30.05
2019-03-28T04:52:17.234Z,28.78
2019-03-28T04:54:43.393Z,28.44
2019-03-28T04:57:09.627Z,27.12
2019-03-28T04:59:35.772Z,27.48
2019-03-28T05:02:03.704Z,27.53
2019-03-28T05:04:30.119Z,27.76
2019-03-28T05:06:56.381Z,28.06
2019-03-28T05:09:22.641Z,28.10
2019-03-28T05:11:48.830Z,28.25
2019-03-28T05:14:14.981Z,27.30
2019-03-28T05:16:41.143Z,27.63
2019-03-28T05:19:07.222Z,27.36
2019-03-28T05:21:33.387Z,27.04
2019-03-28T05:23:59.547Z,27.68
2019-03-28T05:26:26.771Z,26.83
2019-03-28T05:28:57.824Z,25.78
2019-03-28T05:31:21.097Z,25.66
2019-03-28T05:33:47.289Z,23.85
2019-03-28T05:36:13.450Z,23.17
2019-03-28T05:38:39.612Z,22.37
2019-03-28T05:41:05.809Z,20.82
2019-03-28T05:43:31.968Z,21.27
2019-03-28T05:45:58.126Z,21.03
2019-03-28T05:48:24.325Z,22.68
2019-03-28T05:50:50.489Z,23.55
2019-03-28T05:53:16.654Z,23.89
2019-03-28T05:55:42.867Z,22.32
2019-03-28T05:58:09.691Z,20.94
2019-03-28T06:00:38.941Z,20.92
2019-03-28T06:03:04.243Z,19.98
2019-03-28T06:05:30.410Z,19.61
2019-03-28T06:07:56.787Z,20.03
2019-03-28T06:10:22.986Z,20.93
2019-03-28T06:12:49.138Z,21.89
2019-03-28T06:15:15.296Z,21.82
2019-03-28T06:17:41.495Z,21.28
2019-03-28T06:20:08.932Z,21.12
2019-03-28T06:22:35.317Z,21.98
2019-03-28T06:25:05.553Z,22.98
2019-03-28T06:27:32.014Z,21.61
2019-03-28T06:29:58.214Z,21.63
2019-03-28T06:32:24.404Z,21.91
2019-03-28T06:34:50.565Z,21.31
2019-03-28T06:37:17.100Z,21.22
2019-03-28T06:39:43.363Z,20.54
2019-03-28T06:42:09.816Z,19.42
2019-03-28T06:44:35.956Z,19.56
2019-03-28T06:47:02.168Z,19.56
2019-03-28T06:49:28.321Z,19.86
2019-03-28T06:51:54.486Z,19.69
2019-03-28T06:54:20.675Z,20.56
2019-03-28T06:56:46.842Z,21.05
2019-03-28T06:59:13.008Z,20.52
2019-03-28T07:01:39.311Z,19.20
2019-03-28T07:04:05.475Z,18.18
2019-03-28T07:06:31.648Z,18.38
2019-03-28T07:08:57.847Z,18.48
2019-03-28T07:11:24.460Z,18.48
2019-03-28T07:13:50.623Z,19.66
2019-03-28T07:16:16.813Z,19.59
2019-03-28T07:18:42.970Z,19.50
2019-03-28T07:21:09.144Z,19.71
2019-03-28T07:23:35.449Z,21.11
2019-03-28T07:26:01.611Z,19.59
2019-03-28T07:28:28.802Z,18.98
2019-03-28T07:30:54.997Z,18.31
2019-03-28T07:33:21.158Z,19.09
2019-03-28T07:35:47.340Z,18.31
2019-03-28T07:38:13.649Z,18.65
2019-03-28T07:40:39.818Z,18.51
2019-03-28T07:43:05.990Z,18.07
2019-03-28T07:45:34.476Z,18.42
2019-03-28T07:48:00.348Z,18.15
2019-03-28T07:50:26.531Z,18.24
2019-03-28T07:52:53.643Z,18.63
2019-03-28T07:55:20.015Z,17.51
2019-03-28T07:57:46.170Z,17.34
2019-03-28T08:00:12.861Z,16.69
2019-03-28T08:02:39.011Z,15.71
2019-03-28T08:05:08.308Z,16.26
2019-03-28T08:07:44.232Z,17.08
2019-03-28T08:10:04.872Z,17.84
2019-03-28T08:12:31.147Z,18.24
2019-03-28T08:14:57.342Z,17.82
2019-03-28T08:17:23.496Z,17.07
2019-03-28T08:19:49.653Z,17.27
2019-03-28T08:22:15.842Z,16.34
2019-03-28T08:24:41.993Z,17.10
2019-03-28T08:27:08.147Z,16.34
2019-03-28T08:29:34.496Z,17.29
2019-03-28T08:32:00.957Z,17.47
2019-03-28T08:34:27.120Z,17.93
2019-03-28T08:36:53.430Z,16.77
2019-03-28T08:39:19.984Z,16.31
2019-03-28T08:41:48.679Z,15.74
2019-03-28T08:44:14.336Z,16.59
2019-03-28T08:46:40.493Z,16.67
2019-03-28T08:49:06.637Z,17.14
2019-03-28T08:51:32.832Z,17.30
2019-03-28T08:53:58.978Z,16.06
2019-03-28T08:56:25.230Z,15.59
2019-03-28T08:58:51.416Z,15.87
2019-03-28T09:04:02.492Z,17.11
2019-03-28T09:06:28.751Z,16.13
2019-03-28T09:08:55.269Z,15.38
2019-03-28T09:11:21.699Z,14.74
2019-03-28T09:16:32.164Z,15.46
2019-03-28T09:21:42.621Z,14.90
2019-03-28T09:24:08.779Z,14.42
2019-03-28T09:26:34.956Z,13.70
2019-03-28T09:29:01.131Z,14.43
2019-03-28T09:31:27.383Z,14.67
2019-03-28T09:33:53.652Z,14.35
2019-03-28T09:36:19.844Z,14.98
2019-03-28T09:38:46.501Z,14.13
2019-03-28T09:41:12.669Z,13.75
2019-03-28T09:43:38.843Z,14.29
2019-03-28T09:46:04.996Z,14.08
2019-03-28T09:48:31.170Z,14.43
2019-03-28T09:50:57.349Z,14.75
2019-03-28T09:53:23.507Z,14.56
2019-03-28T09:55:49.666Z,14.25
2019-03-28T09:58:15.855Z,14.75
2019-03-28T10:00:42.112Z,14.08
2019-03-28T10:03:08.268Z,13.86
2019-03-28T10:05:37.743Z,13.00
2019-03-28T10:08:02.620Z,13.35
2019-03-28T10:10:28.880Z,14.32
2019-03-28T10:12:55.174Z,13.44
2019-03-28T10:15:21.326Z,13.56
2019-03-28T10:17:47.581Z,12.88
2019-03-28T10:20:13.865Z,12.53
2019-03-28T10:22:40.023Z,12.39
2019-03-28T10:25:06.581Z,12.81
2019-03-28T10:27:32.767Z,12.97
2019-03-28T10:29:58.938Z,13.42
2019-03-28T10:32:25.234Z,12.83
2019-03-28T10:34:51.545Z,13.28
2019-03-28T10:37:17.696Z,12.79
2019-03-28T10:39:43.952Z,12.53
2019-03-28T10:42:10.251Z,12.72
2019-03-28T10:44:36.402Z,12.48
2019-03-28T10:47:04.892Z,13.42
2019-03-28T10:49:30.849Z,13.51
2019-03-28T10:51:57.355Z,14.11
2019-03-28T10:54:25.698Z,12.51
2019-03-28T10:56:52.578Z,13.20
2019-03-28T10:59:23.637Z,13.68
2019-03-28T11:01:50.507Z,13.26
2019-03-28T11:04:15.843Z,13.38
2019-03-28T11:06:42.005Z,13.05
2019-03-28T11:09:08.597Z,12.61
2019-03-28T11:11:35.160Z,13.51
2019-03-28T11:14:01.321Z,13.64
2019-03-28T11:16:27.480Z,13.79
2019-03-28T11:18:53.668Z,12.94
2019-03-28T11:21:19.815Z,13.37
2019-03-28T11:23:45.971Z,12.77
2019-03-28T11:26:12.153Z,13.54
2019-03-28T11:28:38.330Z,13.04
2019-03-28T11:31:04.459Z,12.95
2019-03-28T11:33:31.179Z,12.98
2019-03-28T11:35:57.337Z,13.36
2019-03-28T11:38:23.495Z,13.17
2019-03-28T11:40:49.783Z,12.31
2019-03-28T11:43:16.053Z,12.69
2019-03-28T11:45:42.298Z,12.18
2019-03-28T11:48:08.486Z,11.47
2019-03-28T11:50:34.659Z,11.82
2019-03-28T11:53:00.817Z,12.21
2019-03-28T11:55:27.009Z,12.78
2019-03-28T11:57:56.314Z,13.23
2019-03-28T12:00:21.325Z,13.22
2019-03-28T12:02:47.524Z,12.79
2019-03-28T12:05:13.682Z,12.84
2019-03-28T12:07:39.848Z,12.51
2019-03-28T12:10:08.153Z,12.33
2019-03-28T12:12:34.308Z,12.06
2019-03-28T12:15:00.485Z,11.38
2019-03-28T12:17:26.781Z,11.28
2019-03-28T12:19:52.945Z,11.64
2019-03-28T12:22:19.103Z,11.87
2019-03-28T12:24:45.398Z,11.21
2019-03-28T12:27:11.574Z,11.87
2019-03-28T12:29:37.724Z,12.03
2019-03-28T12:32:13.828Z,11.91
2019-03-28T12:34:32.116Z,11.33
2019-03-28T12:36:58.270Z,11.16
2019-03-28T12:39:24.484Z,10.63
2019-03-28T12:41:50.645Z,11.00
2019-03-28T12:44:16.796Z,11.91
2019-03-28T12:46:42.980Z,11.89
2019-03-28T12:49:09.135Z,12.26
2019-03-28T12:51:35.289Z,12.58
2019-03-28T12:54:02.596Z,12.25
2019-03-28T12:56:29.041Z,11.78
2019-03-28T12:58:55.195Z,11.58
2019-03-28T13:01:21.400Z,10.86
2019-03-28T13:03:47.564Z,11.21
2019-03-28T13:06:13.713Z,11.00
2019-03-28T13:08:40.000Z,11.48
2019-03-28T13:11:06.156Z,11.23
2019-03-28T13:13:32.311Z,10.93
2019-03-28T13:15:58.490Z,10.31
2019-03-28T13:18:24.647Z,11.84
2019-03-28T13:20:50.903Z,12.05
2019-03-28T13:23:17.089Z,11.95
2019-03-28T13:25:43.343Z,12.43
2019-03-28T13:28:09.511Z,13.09
2019-03-28T13:30:35.739Z,12.38
2019-03-28T13:33:01.954Z,12.53
2019-03-28T13:35:28.143Z,11.50
2019-03-28T13:37:54.327Z,11.19
2019-03-28T13:40:20.482Z,11.12
2019-03-28T13:42:46.637Z,12.09
2019-03-28T13:45:13.236Z,12.74
2019-03-28T13:47:39.386Z,12.83
2019-03-28T13:50:06.743Z,12.68
2019-03-28T13:52:32.928Z,12.14
2019-03-28T13:54:59.188Z,12.53
2019-03-28T13:57:25.349Z,12.37
2019-03-28T13:59:51.532Z,12.73
2019-03-28T14:02:17.699Z,12.47
2019-03-28T14:04:43.857Z,12.09
2019-03-28T14:07:10.041Z,12.66
2019-03-28T14:09:36.206Z,12.31
2019-03-28T14:12:02.362Z,13.45
2019-03-28T14:14:28.652Z,12.67
2019-03-28T14:16:54.910Z,11.93
2019-03-28T14:19:21.163Z,11.90
2019-03-28T14:21:47.469Z,11.59
2019-03-28T14:24:13.618Z,11.48
2019-03-28T14:26:39.784Z,11.70
2019-03-28T14:29:07.143Z,13.14
2019-03-28T14:31:33.735Z,13.49
2019-03-28T14:33:59.921Z,13.51
2019-03-28T14:36:26.207Z,13.84
2019-03-28T14:38:52.361Z,12.84
2019-03-28T14:41:18.509Z,13.10
2019-03-28T14:43:44.694Z,13.46
2019-03-28T14:46:10.856Z,13.47
2019-03-28T14:48:37.050Z,13.10
2019-03-28T14:51:03.433Z,12.83
2019-03-28T14:53:29.580Z,13.10
2019-03-28T14:55:56.116Z,13.49
2019-03-28T14:58:23.201Z,13.90
2019-03-28T15:00:51.251Z,13.39
2019-03-28T15:03:26.389Z,12.97
2019-03-28T15:05:45.684Z,12.51
2019-03-28T15:08:11.953Z,12.81
2019-03-28T15:10:38.532Z,12.40
2019-03-28T15:13:04.816Z,12.81
2019-03-28T15:15:31.076Z,13.36
2019-03-28T15:17:57.236Z,13.24
2019-03-28T15:20:23.415Z,13.18
2019-03-28T15:22:49.699Z,13.97
2019-03-28T15:25:15.826Z,14.61
2019-03-28T15:27:42.012Z,13.60
2019-03-28T15:30:08.464Z,13.06
2019-03-28T15:32:34.618Z,12.99
2019-03-28T15:35:00.807Z,13.13
2019-03-28T15:37:27.010Z,13.51
2019-03-28T15:39:53.167Z,13.35
2019-03-28T15:42:19.464Z,13.64
2019-03-28T15:44:45.622Z,13.78
2019-03-28T15:47:11.777Z,14.13
2019-03-28T15:49:37.951Z,14.68
2019-03-28T15:52:05.131Z,14.41
2019-03-28T15:54:31.682Z,14.28
2019-03-28T15:56:58.694Z,13.94
2019-03-28T15:59:25.256Z,14.04
2019-03-28T16:01:51.428Z,14.81
2019-03-28T16:04:17.623Z,15.07
2019-03-28T16:06:43.788Z,15.18
2019-03-28T16:09:09.958Z,15.29
2019-03-28T16:11:36.149Z,15.94
2019-03-28T16:14:02.305Z,15.95
2019-03-28T16:16:28.596Z,15.61
2019-03-28T16:18:54.843Z,15.51
2019-03-28T16:21:21.122Z,15.39
2019-03-28T16:23:47.266Z,15.22
2019-03-28T16:26:15.496Z,15.62
2019-03-28T16:28:41.660Z,15.59
2019-03-28T16:31:07.817Z,15.71
2019-03-28T16:33:34.032Z,15.69
2019-03-28T16:36:00.203Z,15.72
2019-03-28T16:38:26.384Z,15.59
2019-03-28T16:40:52.582Z,15.79
2019-03-28T16:43:18.740Z,15.73
2019-03-28T16:45:44.903Z,16.11
2019-03-28T16:48:11.083Z,16.07
2019-03-28T16:50:37.348Z,16.36
2019-03-28T16:53:03.545Z,18.16
2019-03-28T16:55:29.811Z,18.51
2019-03-28T16:57:55.968Z,20.08
2019-03-28T17:00:25.847Z,19.05
2019-03-28T17:02:52.035Z,19.12
2019-03-28T17:05:18.315Z,19.22
2019-03-28T17:07:46.019Z,19.71
2019-03-28T17:10:18.758Z,20.14
2019-03-28T17:12:44.915Z,20.57
2019-03-28T17:15:11.084Z,20.43
2019-03-28T17:17:38.489Z,21.26
2019-03-28T17:20:05.545Z,21.11
2019-03-28T17:22:31.697Z,21.11
2019-03-28T17:24:57.914Z,20.83
2019-03-28T17:27:24.081Z,20.86
2019-03-28T17:29:50.332Z,21.18
2019-03-28T17:32:16.613Z,21.25
2019-03-28T17:34:45.849Z,20.65
2019-03-28T17:37:10.943Z,20.79
2019-03-28T17:39:37.343Z,20.22
2019-03-28T17:42:06.214Z,20.94
2019-03-28T17:44:31.750Z,21.30
2019-03-28T17:46:58.092Z,20.21
2019-03-28T17:49:24.289Z,20.80
2019-03-28T17:51:50.444Z,20.50
2019-03-28T17:54:16.646Z,20.69
2019-03-28T17:56:42.810Z,21.02
2019-03-28T17:59:08.965Z,21.07
2019-03-28T18:01:35.297Z,21.49
2019-03-28T18:04:01.459Z,21.68
2019-03-28T18:06:27.725Z,21.66
2019-03-28T18:08:53.923Z,21.15
2019-03-28T18:11:20.317Z,22.27
2019-03-28T18:13:46.581Z,21.97
2019-03-28T18:16:12.878Z,22.35
2019-03-28T18:18:39.193Z,22.14
2019-03-28T18:21:05.492Z,21.86
2019-03-28T18:23:31.700Z,22.31
2019-03-28T18:25:57.868Z,22.89
2019-03-28T18:28:24.034Z,23.12
2019-03-28T18:30:50.239Z,23.18
2019-03-28T18:33:16.402Z,23.23
2019-03-28T18:35:42.691Z,23.35
2019-03-28T18:38:08.893Z,23.61
2019-03-28T18:40:35.096Z,23.81
2019-03-28T18:43:01.623Z,23.35
2019-03-28T18:45:28.053Z,23.86
2019-03-28T18:47:54.217Z,23.17
2019-03-28T18:50:20.380Z,23.97
2019-03-28T18:52:46.578Z,23.41
2019-03-28T18:55:14.045Z,23.26
2019-03-28T18:57:40.228Z,23.43
2019-03-28T19:00:07.336Z,23.81
2019-03-28T19:02:33.497Z,24.11
2019-03-28T19:04:59.673Z,23.65
2019-03-28T19:07:25.869Z,23.76
2019-03-28T19:09:52.034Z,23.99
2019-03-28T19:12:18.195Z,25.21
2019-03-28T19:14:46.251Z,24.66
2019-03-28T19:17:12.442Z,24.47
2019-03-28T19:19:39.765Z,25.38
2019-03-28T19:22:06.209Z,25.08
2019-03-28T19:24:32.390Z,24.92
2019-03-28T19:26:58.537Z,25.02
2019-03-28T19:29:24.719Z,25.23
2019-03-28T19:31:50.976Z,25.20
2019-03-28T19:34:17.140Z,25.24
2019-03-28T19:36:44.885Z,25.21
2019-03-28T19:39:15.012Z,27.40
2019-03-28T19:41:41.177Z,25.36
2019-03-28T19:44:07.358Z,25.92
2019-03-28T19:46:33.522Z,28.07
2019-03-28T19:48:59.863Z,25.67
2019-03-28T19:51:28.401Z,26.16
2019-03-28T19:53:54.140Z,26.75
2019-03-28T19:56:20.919Z,25.97
2019-03-28T19:58:47.195Z,25.59
2019-03-28T20:01:13.355Z,26.50
2019-03-28T20:03:39.514Z,26.07
2019-03-28T20:06:05.710Z,25.75
2019-03-28T20:08:31.861Z,25.89
2019-03-28T20:10:58.024Z,25.40
2019-03-28T20:13:24.243Z,25.92
2019-03-28T20:15:50.471Z,25.65
2019-03-28T20:18:16.731Z,25.19
2019-03-28T20:20:42.923Z,25.13
2019-03-28T20:23:09.093Z,24.78
2019-03-28T20:25:35.255Z,24.50
2019-03-28T20:28:01.444Z,24.27
2019-03-28T20:30:27.979Z,24.09
2019-03-28T20:32:54.367Z,24.56
2019-03-28T20:35:21.891Z,26.20
2019-03-28T20:37:48.226Z,25.28
2019-03-28T20:40:14.882Z,24.51
2019-03-28T20:42:41.144Z,26.47
2019-03-28T20:45:08.010Z,25.36
2019-03-28T20:47:34.168Z,25.55
2019-03-28T20:50:01.477Z,26.00
2019-03-28T20:52:27.924Z,26.48
2019-03-28T20:54:54.386Z,26.80
2019-03-28T20:57:20.579Z,27.25
2019-03-28T20:59:47.001Z,27.37
2019-03-28T21:02:13.405Z,27.65
2019-03-28T21:04:39.609Z,27.82
2019-03-28T21:07:05.777Z,28.05
2019-03-28T21:09:31.920Z,28.68
2019-03-28T21:11:58.385Z,27.97
2019-03-28T21:14:24.537Z,28.09
2019-03-28T21:16:53.196Z,27.85
2019-03-28T21:19:19.380Z,27.75
2019-03-28T21:21:45.550Z,27.87
2019-03-28T21:24:11.705Z,28.23
2019-03-28T21:26:37.890Z,28.35
2019-03-28T21:29:04.045Z,28.10
2019-03-28T21:31:30.206Z,29.75
2019-03-28T21:33:56.420Z,28.31
2019-03-28T21:36:29.719Z,28.47
2019-03-28T21:38:50.606Z,28.12
2019-03-28T21:41:16.800Z,28.14
2019-03-28T21:43:43.006Z,31.88
2019-03-28T21:46:09.265Z,31.77
2019-03-28T21:48:35.454Z,29.00
2019-03-28T21:51:01.620Z,28.30
2019-03-28T21:53:27.780Z,28.34
2019-03-28T21:55:56.474Z,28.57
2019-03-28T21:58:22.032Z,28.57
2019-03-28T22:00:48.194Z,28.52
2019-03-28T22:03:14.379Z,30.79
2019-03-28T22:05:40.637Z,29.69
2019-03-28T22:08:07.022Z,29.21
2019-03-28T22:10:33.208Z,29.12
2019-03-28T22:12:59.370Z,29.04
2019-03-28T22:15:25.619Z,28.94
2019-03-28T22:17:51.822Z,29.84
2019-03-28T22:20:18.223Z,29.39
2019-03-28T22:22:44.427Z,33.03
2019-03-28T22:25:10.707Z,30.97
2019-03-28T22:27:36.864Z,32.54
2019-03-28T22:30:24.609Z,32.86
2019-03-28T22:32:50.765Z,29.69
2019-03-28T22:35:17.030Z,29.94
2019-03-28T22:37:43.235Z,30.55
2019-03-28T22:40:11.964Z,31.09
2019-03-28T22:42:37.456Z,30.82
2019-03-28T22:45:07.347Z,30.37
2019-03-28T22:47:35.576Z,30.51
2019-03-28T22:50:01.567Z,30.93
2019-03-28T22:52:27.867Z,31.00
2019-03-28T22:54:54.027Z,30.36
2019-03-28T22:57:20.179Z,30.48
2019-03-28T22:59:46.385Z,31.13
2019-03-28T23:02:12.546Z,31.06
2019-03-28T23:04:39.036Z,32.77
2019-03-28T23:07:10.896Z,31.70
2019-03-28T23:09:33.270Z,31.35
2019-03-28T23:11:59.418Z,31.97
2019-03-28T23:14:25.639Z,33.05
2019-03-28T23:16:51.784Z,33.50
2019-03-28T23:19:17.949Z,31.55
2019-03-28T23:21:44.156Z,39.57
2019-03-28T23:24:10.307Z,33.51
2019-03-28T23:26:36.564Z,33.55
2019-03-28T23:29:02.759Z,33.63
2019-03-28T23:31:29.017Z,31.77
2019-03-28T23:33:55.263Z,31.10
2019-03-28T23:36:21.457Z,31.70
2019-03-28T23:38:47.615Z,31.59
2019-03-28T23:41:13.773Z,32.05
2019-03-28T23:43:39.955Z,32.19
2019-03-28T23:46:06.114Z,32.69
2019-03-28T23:48:32.272Z,33.55
2019-03-28T23:50:58.811Z,38.63
2019-03-28T23:53:25.222Z,38.53
2019-03-28T23:55:51.387Z,34.47
2019-03-28T23:58:17.580Z,32.60
